createdAt,value
2022-12-11T00:01:10.752Z,0.71
2022-12-11T00:03:40.662Z,0.73
2022-12-11T00:06:09.696Z,0.73
2022-12-11T00:08:38.000Z,0.76
2022-12-11T00:11:06.887Z,0.71
2022-12-11T00:13:36.658Z,0.73
2022-12-11T00:16:05.220Z,0.72
2022-12-11T00:18:33.494Z,0.73
2022-12-11T00:21:02.783Z,0.72
2022-12-11T00:23:31.299Z,0.71
2022-12-11T00:25:59.575Z,0.64
2022-12-11T00:28:27.862Z,0.66
2022-12-11T00:30:57.609Z,0.75
2022-12-11T00:33:28.092Z,0.74
2022-12-11T00:35:57.236Z,0.69
2022-12-11T00:38:25.578Z,0.65
2022-12-11T00:40:53.805Z,0.66
2022-12-11T00:43:22.196Z,0.73
2022-12-11T00:45:50.497Z,0.75
2022-12-11T00:48:20.163Z,0.73
2022-12-11T00:50:48.346Z,0.77
2022-12-11T00:53:16.703Z,0.79
2022-12-11T00:55:45.404Z,0.78
2022-12-11T00:58:14.243Z,0.76
2022-12-11T01:00:43.793Z,0.74
2022-12-11T01:03:12.818Z,0.73
2022-12-11T01:05:42.955Z,0.73
2022-12-11T01:08:12.313Z,0.70
2022-12-11T01:10:39.665Z,0.69
2022-12-11T01:13:08.781Z,0.67
2022-12-11T01:15:42.097Z,0.65
2022-12-11T01:18:10.752Z,0.73
2022-12-11T01:20:40.348Z,0.69
2022-12-11T01:23:11.465Z,0.70
2022-12-11T01:25:39.816Z,0.62
2022-12-11T01:28:08.385Z,0.59
2022-12-11T01:30:37.254Z,0.63
2022-12-11T01:33:05.806Z,0.57
2022-12-11T01:35:34.098Z,0.60
2022-12-11T01:38:03.112Z,0.63
2022-12-11T01:40:34.076Z,0.69
2022-12-11T01:43:02.611Z,0.71
2022-12-11T01:45:34.322Z,0.64
2022-12-11T01:48:06.712Z,0.63
2022-12-11T01:50:37.809Z,0.66
2022-12-11T01:53:08.420Z,0.72
2022-12-11T01:55:39.630Z,0.70
2022-12-11T01:58:08.233Z,0.60
2022-12-11T02:00:36.637Z,0.55
2022-12-11T02:03:05.216Z,0.54
2022-12-11T02:05:33.413Z,0.51
2022-12-11T02:08:03.506Z,0.52
2022-12-11T02:10:48.639Z,0.53
2022-12-11T02:13:20.794Z,0.66
2022-12-11T02:15:56.128Z,0.71
2022-12-11T02:18:31.902Z,0.67
2022-12-11T02:21:05.212Z,0.54
2022-12-11T02:24:08.570Z,0.56
2022-12-11T02:26:49.574Z,0.52
2022-12-11T02:29:22.407Z,0.53
2022-12-11T02:31:55.892Z,0.61
2022-12-11T02:34:24.716Z,0.56
2022-12-11T02:36:55.841Z,0.60
2022-12-11T02:39:26.728Z,0.58
2022-12-11T02:41:57.105Z,0.71
2022-12-11T02:44:28.756Z,0.72
2022-12-11T02:46:57.177Z,0.62
2022-12-11T02:49:26.807Z,0.58
2022-12-11T02:51:56.602Z,0.58
2022-12-11T02:54:28.869Z,0.64
2022-12-11T02:57:04.924Z,0.62
2022-12-11T02:59:37.615Z,0.57
2022-12-11T03:02:06.274Z,0.57
2022-12-11T03:04:36.505Z,0.59
2022-12-11T03:07:12.437Z,0.58
2022-12-11T03:09:41.248Z,0.56
2022-12-11T03:12:12.353Z,0.59
2022-12-11T03:14:42.826Z,0.62
2022-12-11T03:17:15.581Z,0.64
2022-12-11T03:19:49.784Z,0.70
2022-12-11T03:22:20.659Z,0.69
2022-12-11T03:24:52.586Z,0.65
2022-12-11T03:27:28.282Z,0.73
2022-12-11T03:30:01.399Z,0.66
2022-12-11T03:32:32.652Z,0.79
2022-12-11T03:35:07.836Z,0.82
2022-12-11T03:37:38.160Z,0.74
2022-12-11T03:40:09.479Z,0.66
2022-12-11T03:42:40.852Z,0.68
2022-12-11T03:45:11.630Z,0.63
2022-12-11T03:47:41.545Z,0.56
2022-12-11T03:50:12.581Z,0.58
2022-12-11T03:52:45.835Z,0.70
2022-12-11T03:55:16.333Z,0.76
2022-12-11T03:57:44.756Z,0.73
2022-12-11T04:00:17.521Z,0.70
2022-12-11T04:03:12.628Z,0.65
2022-12-11T04:05:42.005Z,0.68
2022-12-11T04:08:10.566Z,0.59
2022-12-11T04:10:38.829Z,0.58
2022-12-11T04:13:08.620Z,0.60
2022-12-11T04:15:37.881Z,0.60
2022-12-11T04:18:23.981Z,0.55
2022-12-11T04:21:12.272Z,0.54
2022-12-11T04:23:58.037Z,0.59
2022-12-11T04:26:26.732Z,0.58
2022-12-11T04:28:54.962Z,0.56
2022-12-11T04:31:24.634Z,0.55
2022-12-11T04:33:53.420Z,0.58
2022-12-11T04:36:21.725Z,0.56
2022-12-11T04:38:49.897Z,0.62
2022-12-11T04:41:18.932Z,0.54
2022-12-11T04:43:47.477Z,0.69
2022-12-11T04:46:17.864Z,0.60
2022-12-11T04:48:52.403Z,0.60
2022-12-11T04:51:24.288Z,0.57
2022-12-11T04:53:52.676Z,0.60
2022-12-11T04:56:21.365Z,0.56
2022-12-11T04:58:49.744Z,0.55
2022-12-11T05:01:19.907Z,0.54
2022-12-11T05:03:49.903Z,0.51
2022-12-11T05:06:18.369Z,0.54
2022-12-11T05:08:46.728Z,0.63
2022-12-11T05:11:17.649Z,0.56
2022-12-11T05:13:46.629Z,0.57
2022-12-11T05:16:17.952Z,0.54
2022-12-11T05:18:47.594Z,0.47
2022-12-11T05:21:17.232Z,0.56
2022-12-11T05:23:45.704Z,0.51
2022-12-11T05:26:15.414Z,0.50
2022-12-11T05:28:43.879Z,0.54
2022-12-11T05:31:14.669Z,0.54
2022-12-11T05:33:43.010Z,0.58
2022-12-11T05:36:16.827Z,0.51
2022-12-11T05:38:45.156Z,0.54
2022-12-11T05:41:15.102Z,0.56
2022-12-11T05:43:43.360Z,0.55
2022-12-11T05:46:13.197Z,0.57
2022-12-11T05:48:43.705Z,0.55
2022-12-11T05:51:12.416Z,0.54
2022-12-11T05:53:43.506Z,0.57
2022-12-11T05:56:13.632Z,0.61
2022-12-11T05:58:42.594Z,0.69
2022-12-11T06:01:11.889Z,0.71
2022-12-11T06:03:40.349Z,0.64
2022-12-11T06:06:09.341Z,0.65
2022-12-11T06:08:37.687Z,0.63
2022-12-11T06:11:08.011Z,0.72
2022-12-11T06:13:36.977Z,0.70
2022-12-11T06:16:07.440Z,0.66
2022-12-11T06:18:37.957Z,0.69
2022-12-11T06:21:14.721Z,0.71
2022-12-11T06:23:43.524Z,0.74
2022-12-11T06:26:14.206Z,0.71
2022-12-11T06:28:42.469Z,0.71
2022-12-11T06:31:10.758Z,0.73
2022-12-11T06:33:39.115Z,0.70
2022-12-11T06:36:09.192Z,0.63
2022-12-11T06:38:37.560Z,0.59
2022-12-11T06:41:09.637Z,0.64
2022-12-11T06:43:40.468Z,0.67
2022-12-11T06:46:10.188Z,0.63
2022-12-11T06:48:38.582Z,0.65
2022-12-11T06:51:08.344Z,0.61
2022-12-11T06:53:37.456Z,0.56
2022-12-11T06:56:06.679Z,0.66
2022-12-11T06:58:36.142Z,0.71
2022-12-11T07:01:06.498Z,0.70
2022-12-11T07:03:34.805Z,0.74
2022-12-11T07:06:03.359Z,0.63
2022-12-11T07:08:32.173Z,0.63
2022-12-11T07:11:05.673Z,0.70
2022-12-11T07:13:34.164Z,0.72
2022-12-11T07:16:02.559Z,0.68
2022-12-11T07:18:33.156Z,1.16
2022-12-11T07:21:01.575Z,1.54
2022-12-11T07:23:30.609Z,1.67
2022-12-11T07:25:59.208Z,1.36
2022-12-11T07:46:36.232Z,1.67
2022-12-11T07:49:06.597Z,1.41
2022-12-11T07:51:36.172Z,1.25
2022-12-11T07:54:06.133Z,1.58
2022-12-11T07:56:35.540Z,1.59
2022-12-11T07:59:05.033Z,1.52
2022-12-11T08:01:36.986Z,1.53
2022-12-11T08:04:06.274Z,1.71
2022-12-11T08:06:35.710Z,1.85
2022-12-11T08:09:05.568Z,1.82
2022-12-11T08:11:33.800Z,1.66
2022-12-11T08:14:02.579Z,1.63
2022-12-11T08:16:30.915Z,1.41
2022-12-11T08:19:01.233Z,1.30
2022-12-11T08:21:30.488Z,1.59
2022-12-11T08:23:58.770Z,1.38
2022-12-11T08:26:29.173Z,1.12
2022-12-11T08:28:57.852Z,1.38
2022-12-11T08:31:26.330Z,1.04
2022-12-11T08:33:56.607Z,1.38
2022-12-11T08:36:27.067Z,1.54
2022-12-11T08:38:56.381Z,1.54
2022-12-11T08:41:26.179Z,1.85
2022-12-11T08:43:55.469Z,1.58
2022-12-11T08:46:25.222Z,1.89
2022-12-11T08:48:53.816Z,1.86
2022-12-11T08:51:26.263Z,1.55
2022-12-11T08:53:56.808Z,1.38
2022-12-11T08:56:25.376Z,1.09
2022-12-11T08:58:53.769Z,1.42
2022-12-11T09:01:23.993Z,1.58
2022-12-11T09:03:54.797Z,2.03
2022-12-11T09:06:26.036Z,2.06
2022-12-11T09:08:56.271Z,1.83
2022-12-11T09:11:25.949Z,1.60
2022-12-11T09:13:54.333Z,1.57
2022-12-11T09:16:23.989Z,1.78
2022-12-11T09:18:53.886Z,1.47
2022-12-11T09:21:26.874Z,1.27
2022-12-11T09:23:55.903Z,1.30
2022-12-11T09:26:24.734Z,1.21
2022-12-11T09:28:53.999Z,1.28
2022-12-11T09:31:24.802Z,1.16
2022-12-11T09:33:55.208Z,1.46
2022-12-11T09:36:23.644Z,1.85
2022-12-11T09:38:53.733Z,2.07
2022-12-11T09:41:35.152Z,1.96
2022-12-11T09:44:10.039Z,1.59
2022-12-11T09:46:39.082Z,1.58
2022-12-11T09:49:13.704Z,1.57
2022-12-11T09:51:45.236Z,2.10
2022-12-11T09:54:16.164Z,2.08
2022-12-11T09:56:48.343Z,1.83
2022-12-11T09:59:24.457Z,2.14
2022-12-11T10:01:56.923Z,1.84
2022-12-11T10:04:41.869Z,2.03
2022-12-11T10:07:14.424Z,1.81
2022-12-11T10:09:50.410Z,1.84
2022-12-11T10:12:33.781Z,1.89
2022-12-11T10:15:16.555Z,1.92
2022-12-11T10:17:45.902Z,1.72
2022-12-11T10:20:22.173Z,1.80
2022-12-11T10:22:52.684Z,1.84
2022-12-11T10:25:26.637Z,1.72
2022-12-11T10:27:55.333Z,1.64
2022-12-11T10:30:25.245Z,2.25
2022-12-11T10:32:55.994Z,1.85
2022-12-11T10:35:33.134Z,1.77
2022-12-11T10:38:12.652Z,1.61
2022-12-11T10:40:46.237Z,1.60
2022-12-11T10:43:14.607Z,2.16
2022-12-11T10:45:52.229Z,1.72
2022-12-11T10:48:20.596Z,1.64
2022-12-11T10:50:58.298Z,1.86
2022-12-11T10:53:27.758Z,1.87
2022-12-11T10:55:59.300Z,1.71
2022-12-11T10:58:28.895Z,1.67
2022-12-11T11:01:10.140Z,1.61
2022-12-11T11:03:45.232Z,1.53
2022-12-11T11:06:17.791Z,1.58
2022-12-11T11:08:47.338Z,1.40
2022-12-11T11:11:23.690Z,1.39
2022-12-11T11:13:52.593Z,1.34
2022-12-11T11:16:22.662Z,1.24
2022-12-11T11:18:54.334Z,1.23
2022-12-11T11:21:24.576Z,1.17
2022-12-11T11:23:53.912Z,0.86
2022-12-11T11:26:24.122Z,0.89
2022-12-11T11:28:54.587Z,0.86
2022-12-11T11:31:24.357Z,0.75
2022-12-11T11:33:57.318Z,1.09
2022-12-11T11:36:28.605Z,1.10
2022-12-11T11:39:07.567Z,0.78
2022-12-11T11:41:42.918Z,0.89
2022-12-11T11:44:13.934Z,0.76
2022-12-11T11:46:45.060Z,0.72
2022-12-11T11:49:19.989Z,0.68
2022-12-11T11:51:51.380Z,0.60
2022-12-11T11:54:27.041Z,0.71
2022-12-11T11:56:58.086Z,0.63
2022-12-11T11:59:29.378Z,0.81
2022-12-11T12:01:58.661Z,0.94
2022-12-11T12:04:30.967Z,0.64
2022-12-11T12:07:12.754Z,0.59
2022-12-11T12:09:48.408Z,0.80
2022-12-11T12:12:28.590Z,0.84
2022-12-11T12:15:18.577Z,0.66
2022-12-11T12:17:55.833Z,0.62
2022-12-11T12:20:31.729Z,0.65
2022-12-11T12:23:08.853Z,0.76
2022-12-11T12:25:42.318Z,0.72
2022-12-11T12:28:21.547Z,0.68
2022-12-11T12:30:57.167Z,0.86
2022-12-11T12:33:38.235Z,0.95
2022-12-11T12:36:13.073Z,1.11
2022-12-11T12:38:46.234Z,1.08
2022-12-11T12:41:19.743Z,1.09
2022-12-11T12:43:52.339Z,0.89
2022-12-11T12:46:30.164Z,0.78
2022-12-11T12:48:59.151Z,0.78
2022-12-11T12:51:27.969Z,0.92
2022-12-11T12:53:57.865Z,0.98
2022-12-11T12:56:28.067Z,1.15
2022-12-11T12:58:57.963Z,1.06
2022-12-11T13:01:28.173Z,0.85
2022-12-11T13:03:57.979Z,0.91
2022-12-11T13:06:37.650Z,1.05
2022-12-11T13:09:15.145Z,0.85
2022-12-11T13:11:46.272Z,0.95
2022-12-11T13:14:30.437Z,0.91
2022-12-11T13:17:25.803Z,0.86
2022-12-11T13:20:12.837Z,0.84
2022-12-11T13:22:50.979Z,0.80
2022-12-11T13:25:24.833Z,0.99
2022-12-11T13:27:54.280Z,0.88
2022-12-11T13:30:26.458Z,1.05
2022-12-11T13:33:02.452Z,1.14
2022-12-11T13:35:31.346Z,1.11
2022-12-11T13:38:06.440Z,1.19
2022-12-11T13:40:45.032Z,1.04
2022-12-11T13:43:20.256Z,0.53
2022-12-11T13:45:52.087Z,0.36
2022-12-11T13:48:24.723Z,0.32
2022-12-11T13:50:53.756Z,0.26
2022-12-11T13:53:22.836Z,0.28
2022-12-11T13:55:58.076Z,0.25
2022-12-11T13:58:27.298Z,0.31
2022-12-11T14:01:11.337Z,0.23
2022-12-11T14:03:41.361Z,0.35
2022-12-11T14:06:16.578Z,0.38
2022-12-11T14:08:50.161Z,0.38
2022-12-11T14:11:23.759Z,0.37
2022-12-11T14:13:52.218Z,0.38
2022-12-11T14:16:24.172Z,0.39
2022-12-11T14:18:53.519Z,0.33
2022-12-11T14:21:23.337Z,0.43
2022-12-11T14:23:56.578Z,0.37
2022-12-11T14:26:26.227Z,0.34
2022-12-11T14:28:56.091Z,0.38
2022-12-11T14:31:31.540Z,0.36
2022-12-11T14:34:03.114Z,0.33
2022-12-11T14:36:31.782Z,0.35
2022-12-11T14:39:04.902Z,0.34
2022-12-11T14:41:40.773Z,0.42
2022-12-11T14:44:09.808Z,0.39
2022-12-11T14:46:42.081Z,0.44
2022-12-11T14:49:18.617Z,0.43
2022-12-11T14:51:47.700Z,0.43
2022-12-11T14:54:20.549Z,0.45
2022-12-11T14:56:49.300Z,0.44
2022-12-11T14:59:28.339Z,0.47
2022-12-11T15:02:03.214Z,0.52
2022-12-11T15:04:32.713Z,0.45
2022-12-11T15:07:01.295Z,0.47
2022-12-11T15:09:32.018Z,0.44
2022-12-11T15:12:10.576Z,0.45
2022-12-11T15:14:43.856Z,0.44
2022-12-11T15:17:13.745Z,0.45
2022-12-11T15:19:42.286Z,0.42
2022-12-11T15:22:14.788Z,0.43
2022-12-11T15:24:44.379Z,0.42
2022-12-11T15:27:55.871Z,0.49
2022-12-11T15:30:31.434Z,0.46
2022-12-11T15:33:22.280Z,0.42
2022-12-11T15:36:01.802Z,0.47
2022-12-11T15:38:37.854Z,0.47
2022-12-11T15:41:12.809Z,0.47
2022-12-11T15:43:41.455Z,0.43
2022-12-11T15:46:09.806Z,0.47
2022-12-11T15:49:08.380Z,0.51
2022-12-11T15:51:45.569Z,0.45
2022-12-11T15:54:30.379Z,0.47
2022-12-11T15:57:04.718Z,0.36
2022-12-11T15:59:53.741Z,0.41
2022-12-11T16:02:27.047Z,0.52
2022-12-11T16:05:09.117Z,0.52
2022-12-11T16:07:38.696Z,0.50
2022-12-11T16:10:12.176Z,0.47
2022-12-11T16:12:40.943Z,0.51
2022-12-11T16:15:10.283Z,0.47
2022-12-11T16:17:38.945Z,0.51
2022-12-11T16:20:10.601Z,0.47
2022-12-11T16:22:39.040Z,0.49
2022-12-11T16:25:08.246Z,0.50
2022-12-11T16:27:36.549Z,0.52
2022-12-11T16:30:05.381Z,0.53
2022-12-11T16:32:34.802Z,0.52
2022-12-11T16:35:03.223Z,0.53
2022-12-11T16:37:33.628Z,0.56
2022-12-11T16:40:01.882Z,0.56
2022-12-11T16:42:31.407Z,0.57
2022-12-11T16:45:08.588Z,0.51
2022-12-11T16:47:37.142Z,0.57
2022-12-11T16:50:06.213Z,0.59
2022-12-11T16:52:35.994Z,0.63
2022-12-11T16:55:04.500Z,0.64
2022-12-11T16:57:32.885Z,0.66
2022-12-11T17:00:01.141Z,0.68
2022-12-11T17:02:29.542Z,0.66
2022-12-11T17:04:58.904Z,0.62
2022-12-11T17:07:27.381Z,0.66
2022-12-11T17:09:57.128Z,0.69
2022-12-11T17:12:27.990Z,0.64
2022-12-11T17:14:57.037Z,0.60
2022-12-11T17:17:25.462Z,0.61
2022-12-11T17:19:53.889Z,0.70
2022-12-11T17:22:22.828Z,0.72
2022-12-11T17:24:51.122Z,0.64
2022-12-11T17:27:21.315Z,0.83
2022-12-11T17:29:51.042Z,0.82
2022-12-11T17:32:20.034Z,0.85
2022-12-11T17:34:50.606Z,0.79
2022-12-11T17:37:19.974Z,0.78
2022-12-11T17:39:48.538Z,0.78
2022-12-11T17:42:16.982Z,0.80
2022-12-11T17:44:47.094Z,0.81
2022-12-11T17:47:17.153Z,0.78
2022-12-11T17:49:45.484Z,0.80
2022-12-11T17:52:13.762Z,0.79
2022-12-11T17:54:42.402Z,0.79
2022-12-11T17:57:10.708Z,0.76
2022-12-11T17:59:39.085Z,0.79
2022-12-11T18:02:08.946Z,0.78
2022-12-11T18:04:39.225Z,0.80
2022-12-11T18:07:07.957Z,0.79
2022-12-11T18:09:37.323Z,0.82
2022-12-11T18:12:06.371Z,0.80
2022-12-11T18:14:37.303Z,0.80
2022-12-11T18:17:06.216Z,0.82
2022-12-11T18:19:36.805Z,0.70
2022-12-11T18:22:07.390Z,0.81
2022-12-11T18:24:35.608Z,0.79
2022-12-11T18:27:04.289Z,0.79
2022-12-11T18:29:32.832Z,0.79
2022-12-11T18:32:01.090Z,0.78
2022-12-11T18:34:30.146Z,0.81
2022-12-11T18:36:59.950Z,0.77
2022-12-11T18:39:28.145Z,0.80
2022-12-11T18:42:30.693Z,0.85
2022-12-11T18:44:46.630Z,0.87
2022-12-11T18:47:14.891Z,0.83
2022-12-11T18:49:43.136Z,0.81
2022-12-11T18:52:13.170Z,0.87
2022-12-11T18:54:41.440Z,0.89
2022-12-11T18:57:09.961Z,0.89
2022-12-11T18:59:38.388Z,0.93
2022-12-11T19:02:06.761Z,0.94
2022-12-11T19:04:36.151Z,0.99
2022-12-11T19:07:04.651Z,0.97
2022-12-11T19:09:38.083Z,0.97
2022-12-11T19:12:08.066Z,1.01
2022-12-11T19:14:36.397Z,0.99
2022-12-11T19:17:04.873Z,0.99
2022-12-11T19:19:33.401Z,0.98
2022-12-11T19:22:01.630Z,1.00
2022-12-11T19:24:29.899Z,1.00
2022-12-11T19:26:59.831Z,0.98
2022-12-11T19:29:32.477Z,1.02
2022-12-11T19:32:01.125Z,1.00
2022-12-11T19:34:29.517Z,1.01
2022-12-11T19:36:58.237Z,0.97
2022-12-11T19:39:28.904Z,0.99
2022-12-11T19:41:57.180Z,1.00
2022-12-11T19:44:27.573Z,0.98
2022-12-11T19:46:56.415Z,1.00
2022-12-11T19:49:24.729Z,0.96
2022-12-11T19:51:52.916Z,1.03
2022-12-11T19:54:21.188Z,1.02
2022-12-11T19:56:49.354Z,1.01
2022-12-11T19:59:18.263Z,1.05
2022-12-11T20:01:49.622Z,1.08
2022-12-11T20:04:18.969Z,1.06
2022-12-11T20:06:48.696Z,1.09
2022-12-11T20:09:18.221Z,1.12
2022-12-11T20:11:47.446Z,1.12
2022-12-11T20:14:21.466Z,1.13
2022-12-11T20:19:41.185Z,1.20
2022-12-11T20:22:09.437Z,1.21
2022-12-11T20:24:37.704Z,1.33
2022-12-11T20:27:06.359Z,1.37
2022-12-11T20:29:34.595Z,1.32
2022-12-11T20:32:04.290Z,1.18
2022-12-11T20:34:32.632Z,1.35
2022-12-11T20:37:01.129Z,1.35
2022-12-11T20:39:29.339Z,1.38
2022-12-11T20:41:57.667Z,1.38
2022-12-11T20:44:26.037Z,1.38
2022-12-11T20:46:55.060Z,1.38
2022-12-11T20:49:24.839Z,1.35
2022-12-11T20:51:53.145Z,1.38
2022-12-11T20:54:21.336Z,1.42
2022-12-11T20:56:49.639Z,1.44
2022-12-11T20:59:17.931Z,1.45
2022-12-11T21:01:46.495Z,1.44
2022-12-11T21:04:14.849Z,1.46
2022-12-11T21:06:44.453Z,1.43
2022-12-11T21:09:14.616Z,1.49
2022-12-11T21:11:42.862Z,1.52
2022-12-11T21:14:11.583Z,1.55
2022-12-11T21:16:39.936Z,1.51
2022-12-11T21:19:15.106Z,1.57
2022-12-11T21:21:46.863Z,1.62
2022-12-11T21:24:16.968Z,1.68
2022-12-11T21:26:45.180Z,1.69
2022-12-11T21:29:13.835Z,1.61
2022-12-11T21:31:42.157Z,1.55
2022-12-11T21:34:10.837Z,1.61
2022-12-11T21:36:39.225Z,1.69
2022-12-11T21:39:08.938Z,1.69
2022-12-11T21:41:37.104Z,1.70
2022-12-11T21:46:54.319Z,1.75
2022-12-11T21:49:23.548Z,1.80
2022-12-11T21:51:51.895Z,1.77
2022-12-11T21:54:21.625Z,1.78
2022-12-11T21:56:49.896Z,1.83
2022-12-11T21:59:18.827Z,1.79
2022-12-11T22:01:47.297Z,1.80
2022-12-11T22:04:17.332Z,1.81
2022-12-11T22:06:47.397Z,1.86
2022-12-11T22:09:16.370Z,1.87
2022-12-11T22:11:47.022Z,1.84
2022-12-11T22:14:15.897Z,1.86
2022-12-11T22:16:44.692Z,1.81
2022-12-11T22:19:13.159Z,1.86
2022-12-11T22:21:42.080Z,1.86
2022-12-11T22:24:10.385Z,1.82
2022-12-11T22:26:38.690Z,1.87
2022-12-11T22:29:08.271Z,1.87
2022-12-11T22:31:36.488Z,1.84
2022-12-11T22:34:04.832Z,1.86
2022-12-11T22:36:33.069Z,1.87
2022-12-11T22:39:01.577Z,1.86
2022-12-11T22:41:31.706Z,1.88
2022-12-11T22:43:59.916Z,1.82
2022-12-11T22:46:31.799Z,1.89
2022-12-11T22:49:00.254Z,1.83
2022-12-11T22:51:28.684Z,1.82
2022-12-11T22:53:57.958Z,1.84
2022-12-11T22:56:26.405Z,1.86
2022-12-11T22:58:54.757Z,1.77
2022-12-11T23:01:24.825Z,1.87
2022-12-11T23:03:54.561Z,1.87
2022-12-11T23:06:25.037Z,1.85
2022-12-11T23:08:55.245Z,1.85
2022-12-11T23:11:26.042Z,1.88
2022-12-11T23:13:54.381Z,1.85
2022-12-11T23:16:22.739Z,1.84
2022-12-11T23:18:51.196Z,1.88
2022-12-11T23:21:21.842Z,1.86
2022-12-11T23:23:50.213Z,1.82
2022-12-11T23:26:19.717Z,1.80
2022-12-11T23:28:48.612Z,1.83
2022-12-11T23:31:17.580Z,1.87
2022-12-11T23:33:46.096Z,1.80
2022-12-11T23:36:14.723Z,1.77
2022-12-11T23:38:47.266Z,1.77
2022-12-11T23:41:19.269Z,1.78
2022-12-11T23:43:47.604Z,1.76
2022-12-11T23:46:17.295Z,1.74
2022-12-11T23:48:46.098Z,1.71
2022-12-11T23:51:16.756Z,1.70
2022-12-11T23:53:46.892Z,1.71
2022-12-11T23:56:17.293Z,1.74
2022-12-11T23:58:46.460Z,1.73
